createdAt,value
2018-07-02T00:00:50.025Z,1.1
2018-07-02T00:02:49.592Z,1.0
2018-07-02T00:04:50.107Z,1.2
2018-07-02T00:06:49.702Z,1.2
2018-07-02T00:08:49.879Z,1.2
2018-07-02T00:10:50.166Z,1.3
2018-07-02T00:12:50.041Z,1.1
2018-07-02T00:14:49.925Z,1.0
2018-07-02T00:16:50.999Z,1.0
2018-07-02T00:18:49.806Z,1.1
2018-07-02T00:20:50.451Z,1.2
2018-07-02T00:22:50.342Z,1.2
2018-07-02T00:24:50.186Z,1.1
2018-07-02T00:26:49.771Z,1.1
2018-07-02T00:28:50.060Z,1.2
2018-07-02T00:30:50.307Z,1.2
2018-07-02T00:32:50.113Z,1.2
2018-07-02T00:34:49.906Z,1.3
2018-07-02T00:36:50.364Z,1.3
2018-07-02T00:38:49.757Z,1.2
2018-07-02T00:40:50.116Z,1.4
2018-07-02T00:42:50.864Z,1.2
2018-07-02T00:44:49.852Z,1.2
2018-07-02T00:46:50.173Z,1.2
2018-07-02T00:48:50.724Z,1.2
2018-07-02T00:50:49.670Z,1.2
2018-07-02T00:52:50.034Z,1.2
2018-07-02T00:54:50.862Z,1.2
2018-07-02T00:56:49.643Z,1.2
2018-07-02T00:58:50.521Z,1.5
2018-07-02T01:00:49.702Z,1.1
2018-07-02T01:02:50.029Z,1.4
2018-07-02T01:04:49.624Z,1.4
2018-07-02T01:06:50.073Z,1.1
2018-07-02T01:08:50.880Z,1.3
2018-07-02T01:10:49.611Z,1.2
2018-07-02T01:12:49.909Z,1.2
2018-07-02T01:14:50.463Z,1.2
2018-07-02T01:16:49.920Z,1.4
2018-07-02T01:18:50.265Z,1.3
2018-07-02T01:20:50.529Z,1.3
2018-07-02T01:22:49.812Z,1.3
2018-07-02T01:24:50.740Z,1.3
2018-07-02T01:26:49.968Z,1.1
2018-07-02T01:28:50.186Z,1.4
2018-07-02T01:30:50.992Z,1.4
2018-07-02T01:32:50.465Z,1.2
2018-07-02T01:34:50.031Z,1.4
2018-07-02T01:36:50.487Z,1.3
2018-07-02T01:38:49.741Z,1.1
2018-07-02T01:40:50.127Z,1.4
2018-07-02T01:42:50.322Z,1.4
2018-07-02T01:44:49.691Z,1.4
2018-07-02T01:46:50.457Z,1.3
2018-07-02T01:48:50.315Z,1.4
2018-07-02T01:50:49.627Z,1.4
2018-07-02T01:52:50.586Z,1.4
2018-07-02T01:54:49.901Z,1.4
2018-07-02T01:56:50.395Z,1.5
2018-07-02T01:58:49.625Z,1.4
2018-07-02T02:00:49.871Z,1.3
2018-07-02T02:02:50.111Z,1.3
2018-07-02T02:04:51.051Z,1.4
2018-07-02T02:06:49.830Z,1.2
2018-07-02T02:08:50.096Z,1.4
2018-07-02T02:10:50.271Z,1.4
2018-07-02T02:12:50.767Z,1.1
2018-07-02T02:14:49.697Z,1.4
2018-07-02T02:16:50.401Z,1.4
2018-07-02T02:18:49.971Z,1.9
2018-07-02T02:20:50.629Z,1.9
2018-07-02T02:22:50.610Z,1.3
2018-07-02T02:24:50.267Z,1.4
2018-07-02T02:26:50.441Z,1.4
2018-07-02T02:28:49.721Z,1.4
2018-07-02T02:30:49.970Z,1.5
2018-07-02T02:32:50.216Z,1.4
2018-07-02T02:34:49.662Z,1.6
2018-07-02T02:36:50.070Z,1.6
2018-07-02T02:38:50.344Z,1.3
2018-07-02T02:40:49.560Z,1.3
2018-07-02T02:42:49.751Z,1.3
2018-07-02T02:44:49.981Z,1.5
2018-07-02T02:46:50.356Z,1.5
2018-07-02T02:48:49.728Z,1.4
2018-07-02T02:50:49.970Z,1.4
2018-07-02T02:52:50.231Z,1.3
2018-07-02T02:54:50.508Z,1.7
2018-07-02T02:56:49.865Z,1.5
2018-07-02T02:58:50.347Z,1.5
2018-07-02T03:00:49.602Z,1.5
2018-07-02T03:02:49.851Z,1.5
2018-07-02T03:04:50.362Z,1.5
2018-07-02T03:06:50.423Z,1.5
2018-07-02T03:08:49.620Z,1.4
2018-07-02T03:10:50.136Z,1.4
2018-07-02T03:12:50.389Z,1.4
2018-07-02T03:14:49.983Z,1.4
2018-07-02T03:16:50.035Z,1.5
2018-07-02T03:18:50.931Z,1.5
2018-07-02T03:20:50.468Z,1.4
2018-07-02T03:22:49.790Z,1.6
2018-07-02T03:24:50.159Z,1.7
2018-07-02T03:26:49.690Z,1.7
2018-07-02T03:28:49.912Z,1.7
2018-07-02T03:30:50.087Z,1.7
2018-07-02T03:32:50.390Z,1.6
2018-07-02T03:34:49.828Z,1.6
2018-07-02T03:36:50.246Z,1.7
2018-07-02T03:38:49.658Z,1.6
2018-07-02T03:40:50.065Z,1.6
2018-07-02T03:42:50.818Z,1.4
2018-07-02T03:44:50.132Z,1.7
2018-07-02T03:46:51.191Z,1.7
2018-07-02T03:48:50.311Z,1.7
2018-07-02T03:50:50.146Z,1.9
2018-07-02T03:52:49.868Z,1.9
2018-07-02T03:54:50.715Z,1.9
2018-07-02T03:56:49.889Z,1.9
2018-07-02T03:58:50.573Z,1.9
2018-07-02T04:00:50.097Z,1.8
2018-07-02T04:02:51.085Z,1.7
2018-07-02T04:04:49.718Z,1.7
2018-07-02T04:06:50.668Z,1.7
2018-07-02T04:08:50.333Z,1.6
2018-07-02T04:10:50.150Z,1.7
2018-07-02T04:12:50.406Z,1.9
2018-07-02T04:14:50.061Z,1.9
2018-07-02T04:16:50.352Z,1.9
2018-07-02T04:18:50.980Z,2.0
2018-07-02T04:20:49.903Z,1.8
2018-07-02T04:22:50.133Z,1.8
2018-07-02T04:24:50.373Z,1.6
2018-07-02T04:26:50.011Z,1.6
2018-07-02T04:28:50.292Z,1.8
2018-07-02T04:30:50.479Z,1.6
2018-07-02T04:32:49.744Z,1.6
2018-07-02T04:34:50.196Z,1.9
2018-07-02T04:36:49.625Z,1.9
2018-07-02T04:38:49.834Z,1.6
2018-07-02T04:40:50.509Z,1.7
2018-07-02T04:42:50.393Z,1.7
2018-07-02T04:44:50.245Z,1.5
2018-07-02T04:46:51.167Z,1.8
2018-07-02T04:48:50.929Z,1.3
2018-07-02T04:50:49.901Z,1.3
2018-07-02T04:52:50.313Z,1.3
2018-07-02T04:54:50.348Z,1.3
2018-07-02T04:56:50.723Z,1.3
2018-07-02T04:58:50.845Z,1.6
2018-07-02T05:00:50.401Z,2.1
2018-07-02T05:02:50.454Z,2.1
2018-07-02T05:04:49.994Z,2.0
2018-07-02T05:06:50.118Z,1.4
2018-07-02T05:08:50.308Z,1.3
2018-07-02T05:10:50.376Z,2.5
2018-07-02T05:12:50.507Z,2.5
2018-07-02T05:14:49.622Z,1.7
2018-07-02T05:16:49.830Z,1.7
2018-07-02T05:18:49.867Z,1.1
2018-07-02T05:20:49.965Z,1.1
2018-07-02T05:22:50.109Z,1.5
2018-07-02T05:24:50.288Z,1.5
2018-07-02T05:26:49.537Z,1.3
2018-07-02T05:28:49.555Z,1.2
2018-07-02T05:30:49.616Z,1.0
2018-07-02T05:32:49.984Z,1.2
2018-07-02T05:34:50.208Z,1.2
2018-07-02T05:36:49.843Z,1.2
2018-07-02T05:38:50.022Z,1.1
2018-07-02T05:40:50.337Z,1.1
2018-07-02T05:42:50.415Z,1.1
2018-07-02T05:44:49.557Z,1.2
2018-07-02T05:46:49.789Z,1.2
2018-07-02T05:48:50.062Z,1.1
2018-07-02T05:50:50.149Z,1.5
2018-07-02T05:52:50.383Z,1.5
2018-07-02T05:54:50.505Z,1.1
2018-07-02T05:56:50.230Z,1.0
2018-07-02T05:58:50.259Z,0.9
2018-07-02T06:00:50.339Z,0.9
2018-07-02T06:02:50.439Z,1.1
2018-07-02T06:04:49.730Z,1.0
2018-07-02T06:06:49.951Z,1.1
2018-07-02T06:08:50.034Z,1.0
2018-07-02T06:10:50.157Z,1.2
2018-07-02T06:12:50.250Z,1.2
2018-07-02T06:14:50.321Z,1.0
2018-07-02T06:16:50.518Z,1.1
2018-07-02T06:18:49.636Z,1.1
2018-07-02T06:20:49.687Z,1.1
2018-07-02T06:22:49.830Z,1.1
2018-07-02T06:24:49.940Z,1.4
2018-07-02T06:26:49.794Z,1.4
2018-07-02T06:28:49.903Z,1.2
2018-07-02T06:30:50.000Z,1.1
2018-07-02T06:32:50.169Z,1.0
2018-07-02T06:34:49.513Z,1.3
2018-07-02T06:36:49.805Z,1.0
2018-07-02T06:38:50.030Z,1.0
2018-07-02T06:40:50.292Z,1.0
2018-07-02T06:42:50.401Z,1.0
2018-07-02T06:44:50.492Z,1.1
2018-07-02T06:46:49.647Z,1.1
2018-07-02T06:48:49.721Z,1.3
2018-07-02T06:50:49.961Z,1.1
2018-07-02T06:52:50.066Z,1.1
2018-07-02T06:54:50.206Z,1.3
2018-07-02T06:56:50.479Z,1.0
2018-07-02T06:58:50.158Z,1.1
2018-07-02T07:00:50.195Z,1.1
2018-07-02T07:02:50.215Z,1.2
2018-07-02T07:04:49.635Z,1.0
2018-07-02T07:06:49.887Z,0.9
2018-07-02T07:08:50.041Z,0.9
2018-07-02T07:10:50.177Z,1.0
2018-07-02T07:12:50.269Z,0.9
2018-07-02T07:14:50.414Z,1.2
2018-07-02T07:16:49.898Z,1.3
2018-07-02T07:18:50.045Z,1.3
2018-07-02T07:20:50.146Z,0.9
2018-07-02T07:22:50.335Z,1.0
2018-07-02T07:24:50.444Z,1.2
2018-07-02T07:26:49.645Z,1.1
2018-07-02T07:28:49.692Z,1.1
2018-07-02T07:30:49.739Z,1.0
2018-07-02T07:32:49.808Z,0.9
2018-07-02T07:34:50.186Z,0.9
2018-07-02T07:36:50.354Z,0.9
2018-07-02T07:38:50.499Z,0.9
2018-07-02T07:40:50.600Z,1.0
2018-07-02T07:42:49.750Z,1.0
2018-07-02T07:44:50.051Z,1.0
2018-07-02T07:46:50.228Z,0.9
2018-07-02T07:48:50.296Z,0.9
2018-07-02T07:50:50.409Z,1.0
2018-07-02T07:52:50.545Z,1.0
2018-07-02T07:54:49.606Z,1.3
2018-07-02T07:56:49.798Z,1.3
2018-07-02T07:58:49.852Z,0.9
2018-07-02T08:00:49.946Z,0.9
2018-07-02T08:02:50.008Z,1.0
2018-07-02T08:04:50.441Z,0.9
2018-07-02T08:06:49.649Z,0.9
2018-07-02T08:08:49.787Z,1.0
2018-07-02T08:10:49.846Z,1.1
2018-07-02T08:12:50.023Z,1.1
2018-07-02T08:14:50.041Z,1.0
2018-07-02T08:16:50.287Z,0.8
2018-07-02T08:18:50.469Z,0.8
2018-07-02T08:20:49.972Z,0.9
2018-07-02T08:22:50.057Z,0.9
2018-07-02T08:24:50.233Z,1.0
2018-07-02T08:26:50.404Z,1.0
2018-07-02T08:28:49.526Z,1.1
2018-07-02T08:30:49.573Z,1.1
2018-07-02T08:32:49.767Z,1.1
2018-07-02T08:34:50.383Z,1.3
2018-07-02T08:36:49.556Z,1.3
2018-07-02T08:38:49.714Z,1.2
2018-07-02T08:40:49.752Z,1.7
2018-07-02T08:42:49.812Z,1.7
2018-07-02T08:44:49.903Z,0.9
2018-07-02T08:46:50.152Z,0.9
2018-07-02T08:48:49.783Z,1.0
2018-07-02T08:50:49.827Z,0.7
2018-07-02T08:52:50.126Z,0.7
2018-07-02T08:54:49.694Z,1.1
2018-07-02T08:56:49.940Z,1.1
2018-07-02T08:58:50.043Z,0.9
2018-07-02T09:00:50.098Z,1.2
2018-07-02T09:02:50.216Z,1.2
2018-07-02T09:04:50.463Z,1.1
2018-07-02T09:06:49.879Z,1.1
2018-07-02T09:08:50.091Z,0.9
2018-07-02T09:10:50.182Z,0.9
2018-07-02T09:12:50.405Z,0.9
2018-07-02T09:14:49.656Z,0.9
2018-07-02T09:16:49.769Z,1.0
2018-07-02T09:18:49.912Z,0.8
2018-07-02T09:20:50.252Z,0.9
2018-07-02T09:22:50.349Z,1.1
2018-07-02T09:24:50.417Z,1.1
2018-07-02T09:26:49.627Z,0.9
2018-07-02T09:28:49.753Z,0.9
2018-07-02T09:30:49.965Z,1.0
2018-07-02T09:32:50.086Z,1.0
2018-07-02T09:34:49.733Z,1.1
2018-07-02T09:36:50.150Z,1.1
2018-07-02T09:38:50.523Z,1.0
2018-07-02T09:40:49.860Z,0.9
2018-07-02T09:42:49.977Z,1.0
2018-07-02T09:44:50.128Z,1.0
2018-07-02T09:46:50.367Z,0.9
2018-07-02T09:48:49.586Z,0.8
2018-07-02T09:50:49.825Z,1.2
2018-07-02T09:52:49.930Z,0.9
2018-07-02T09:54:50.090Z,0.9
2018-07-02T09:56:50.453Z,0.9
2018-07-02T09:58:49.789Z,0.9
2018-07-02T10:00:49.927Z,0.9
2018-07-02T10:02:50.064Z,1.0
2018-07-02T10:04:50.505Z,1.0
2018-07-02T10:06:49.874Z,0.8
2018-07-02T10:08:49.931Z,1.1
2018-07-02T10:10:50.146Z,1.1
2018-07-02T10:12:50.267Z,1.1
2018-07-02T10:14:50.335Z,1.1
2018-07-02T10:16:50.455Z,1.0
2018-07-02T10:18:49.592Z,1.0
2018-07-02T10:20:49.712Z,1.0
2018-07-02T10:22:49.891Z,1.2
2018-07-02T10:24:50.083Z,1.0
2018-07-02T10:26:50.423Z,0.9
2018-07-02T10:28:50.404Z,1.2
2018-07-02T10:30:49.736Z,0.9
2018-07-02T10:32:50.505Z,0.9
2018-07-02T10:34:49.916Z,1.1
2018-07-02T10:36:49.814Z,0.9
2018-07-02T10:38:50.153Z,1.0
2018-07-02T10:40:50.403Z,1.0
2018-07-02T10:42:50.486Z,1.0
2018-07-02T10:44:49.611Z,0.9
2018-07-02T10:46:49.827Z,0.9
2018-07-02T10:48:49.907Z,1.1
2018-07-02T10:50:50.032Z,1.1
2018-07-02T10:52:50.284Z,1.0
2018-07-02T10:54:50.443Z,1.0
2018-07-02T10:56:49.702Z,1.0
2018-07-02T10:58:49.748Z,1.0
2018-07-02T11:00:49.878Z,0.9
2018-07-02T11:02:50.003Z,1.0
2018-07-02T11:04:50.276Z,0.9
2018-07-02T11:06:50.482Z,1.0
2018-07-02T11:08:49.644Z,1.0
2018-07-02T11:10:49.712Z,1.1
2018-07-02T11:12:49.934Z,1.0
2018-07-02T11:14:50.138Z,1.0
2018-07-02T11:16:50.246Z,1.0
2018-07-02T11:18:50.479Z,1.0
2018-07-02T11:20:49.592Z,0.9
2018-07-02T11:22:49.701Z,0.9
2018-07-02T11:24:49.761Z,0.9
2018-07-02T11:26:49.948Z,1.0
2018-07-02T11:28:50.038Z,1.0
2018-07-02T11:30:50.104Z,0.9
2018-07-02T11:32:50.264Z,1.0
2018-07-02T11:34:49.709Z,1.0
2018-07-02T11:36:49.868Z,1.0
2018-07-02T11:38:50.015Z,1.0
2018-07-02T11:40:50.126Z,0.9
2018-07-02T11:42:50.188Z,0.9
2018-07-02T11:44:50.391Z,0.9
2018-07-02T11:46:49.584Z,1.0
2018-07-02T11:48:49.625Z,1.0
2018-07-02T11:50:49.977Z,0.9
2018-07-02T11:52:50.016Z,0.8
2018-07-02T11:54:50.110Z,1.0
2018-07-02T11:56:50.278Z,0.8
2018-07-02T11:58:50.452Z,0.8
2018-07-02T12:00:49.601Z,0.9
2018-07-02T12:02:49.730Z,0.9
2018-07-02T12:04:50.226Z,0.8
2018-07-02T12:06:49.553Z,0.8
2018-07-02T12:08:49.662Z,0.9
2018-07-02T12:10:49.720Z,0.9
2018-07-02T12:12:49.846Z,0.9
2018-07-02T12:14:49.942Z,0.8
2018-07-02T12:16:50.137Z,0.8
2018-07-02T12:18:50.282Z,0.9
2018-07-02T12:20:50.388Z,1.0
2018-07-02T12:22:50.483Z,0.9
2018-07-02T12:24:49.548Z,0.9
2018-07-02T12:26:49.782Z,0.9
2018-07-02T12:28:49.894Z,1.0
2018-07-02T12:30:50.155Z,0.9
2018-07-02T12:32:50.308Z,0.9
2018-07-02T12:34:50.504Z,1.1
2018-07-02T12:36:49.901Z,1.1
2018-07-02T12:38:50.022Z,0.8
2018-07-02T12:40:50.103Z,0.9
2018-07-02T12:42:50.253Z,0.9
2018-07-02T12:44:50.332Z,0.9
2018-07-02T12:46:49.783Z,1.0
2018-07-02T12:48:49.683Z,0.8
2018-07-02T12:50:49.759Z,0.9
2018-07-02T12:52:49.914Z,1.0
2018-07-02T12:54:49.948Z,1.0
2018-07-02T12:56:50.154Z,0.8
2018-07-02T12:58:50.274Z,1.0
2018-07-02T13:00:50.381Z,0.9
2018-07-02T13:02:50.487Z,0.8
2018-07-02T13:04:49.698Z,0.8
2018-07-02T13:06:49.980Z,0.8
2018-07-02T13:08:50.014Z,0.8
2018-07-02T13:10:50.199Z,0.9
2018-07-02T13:12:50.291Z,0.9
2018-07-02T13:14:50.486Z,0.9
2018-07-02T13:16:49.671Z,0.9
2018-07-02T13:18:49.824Z,1.1
2018-07-02T13:20:49.923Z,0.8
2018-07-02T13:22:49.955Z,0.9
2018-07-02T13:24:50.025Z,0.9
2018-07-02T13:26:50.660Z,1.0
2018-07-02T13:28:49.954Z,1.0
2018-07-02T13:30:50.233Z,0.9
2018-07-02T13:32:50.299Z,0.9
2018-07-02T13:34:49.600Z,0.9
2018-07-02T13:36:49.796Z,1.1
2018-07-02T13:38:50.011Z,0.8
2018-07-02T13:40:50.114Z,0.8
2018-07-02T13:42:50.218Z,1.0
2018-07-02T13:44:50.297Z,1.0
2018-07-02T13:46:50.458Z,1.0
2018-07-02T13:48:49.763Z,1.0
2018-07-02T13:50:49.869Z,1.0
2018-07-02T13:52:49.981Z,0.9
2018-07-02T13:54:50.189Z,0.8
2018-07-02T13:56:50.438Z,0.8
2018-07-02T13:58:50.493Z,1.1
2018-07-02T14:00:49.578Z,0.9
2018-07-02T14:02:49.690Z,0.9
2018-07-02T14:04:49.977Z,0.8
2018-07-02T14:06:50.337Z,0.9
2018-07-02T14:08:50.407Z,0.9
2018-07-02T14:10:49.581Z,0.8
2018-07-02T14:12:49.725Z,0.8
2018-07-02T14:14:49.837Z,1.1
2018-07-02T14:16:50.025Z,0.9
2018-07-02T14:18:50.177Z,1.1
2018-07-02T14:20:50.333Z,1.4
2018-07-02T14:22:50.452Z,1.4
2018-07-02T14:24:49.905Z,0.8
2018-07-02T14:26:50.159Z,1.0
2018-07-02T14:28:50.327Z,1.0
2018-07-02T14:30:50.409Z,0.8
2018-07-02T14:32:49.711Z,0.8
2018-07-02T14:34:50.323Z,0.9
2018-07-02T14:36:50.494Z,0.9
2018-07-02T14:38:49.579Z,0.8
2018-07-02T14:40:49.642Z,0.8
2018-07-02T14:42:49.710Z,0.8
2018-07-02T14:44:50.097Z,1.0
2018-07-02T14:46:50.322Z,1.0
2018-07-02T14:48:50.415Z,0.9
2018-07-02T14:50:49.764Z,0.9
2018-07-02T14:52:49.976Z,0.8
2018-07-02T14:54:50.147Z,0.9
2018-07-02T14:56:50.316Z,0.9
2018-07-02T14:58:50.346Z,0.9
2018-07-02T15:00:50.401Z,0.8
2018-07-02T15:02:49.570Z,0.8
2018-07-02T15:04:49.877Z,0.8
2018-07-02T15:06:50.124Z,0.8
2018-07-02T15:08:50.216Z,0.7
2018-07-02T15:10:50.255Z,0.7
2018-07-02T15:12:50.480Z,0.9
2018-07-02T15:14:49.524Z,0.8
2018-07-02T15:16:49.800Z,0.7
2018-07-02T15:18:49.885Z,0.9
2018-07-02T15:20:49.916Z,0.9
2018-07-02T15:22:50.075Z,0.8
2018-07-02T15:24:50.125Z,0.8
2018-07-02T15:26:50.368Z,1.6
2018-07-02T15:28:50.382Z,1.6
2018-07-02T15:30:50.440Z,0.9
2018-07-02T15:32:50.517Z,0.9
2018-07-02T15:34:50.101Z,0.9
2018-07-02T15:36:50.337Z,0.8
2018-07-02T15:38:50.399Z,0.8
2018-07-02T15:40:50.496Z,0.8
2018-07-02T15:42:49.626Z,0.8
2018-07-02T15:44:49.734Z,0.8
2018-07-02T15:46:50.207Z,0.8
2018-07-02T15:48:49.604Z,0.8
2018-07-02T15:50:49.851Z,0.8
2018-07-02T15:52:49.899Z,0.9
2018-07-02T15:54:49.962Z,1.1
2018-07-02T15:56:50.194Z,1.0
2018-07-02T15:58:50.327Z,1.0
2018-07-02T16:00:50.456Z,0.9
2018-07-02T16:02:50.542Z,0.9
2018-07-02T16:04:49.782Z,0.9
2018-07-02T16:06:49.998Z,0.9
2018-07-02T16:08:50.096Z,0.8
2018-07-02T16:10:50.262Z,0.9
2018-07-02T16:12:50.334Z,0.8
2018-07-02T16:14:49.602Z,1.1
2018-07-02T16:16:49.765Z,0.9
2018-07-02T16:18:49.964Z,0.9
2018-07-02T16:20:50.047Z,0.9
2018-07-02T16:22:50.180Z,1.0
2018-07-02T16:24:49.558Z,1.0
2018-07-02T16:26:49.769Z,0.9
2018-07-02T16:28:50.114Z,0.8
2018-07-02T16:30:50.222Z,0.8
2018-07-02T16:32:50.289Z,1.0
2018-07-02T16:34:49.792Z,0.8
2018-07-02T16:36:50.130Z,1.1
2018-07-02T16:38:50.233Z,1.1
2018-07-02T16:40:50.286Z,0.9
2018-07-02T16:42:50.491Z,0.9
2018-07-02T16:44:49.760Z,1.2
2018-07-02T16:46:49.960Z,0.9
2018-07-02T16:48:50.095Z,0.9
2018-07-02T16:50:50.178Z,1.1
2018-07-02T16:52:50.309Z,0.8
2018-07-02T16:54:50.382Z,0.8
2018-07-02T16:56:49.653Z,0.8
2018-07-02T16:58:49.802Z,0.9
2018-07-02T17:00:50.013Z,0.9
2018-07-02T17:02:50.063Z,0.9
2018-07-02T17:04:50.311Z,0.9
2018-07-02T17:06:49.640Z,0.7
2018-07-02T17:08:49.763Z,0.9
2018-07-02T17:10:49.949Z,0.9
2018-07-02T17:12:50.234Z,1.0
2018-07-02T17:14:50.309Z,0.8
2018-07-02T17:16:49.555Z,0.8
2018-07-02T17:18:49.676Z,0.9
2018-07-02T17:20:49.724Z,1.0
2018-07-02T17:22:49.952Z,1.1
2018-07-02T17:24:50.117Z,1.1
2018-07-02T17:26:50.459Z,1.0
2018-07-02T17:28:49.529Z,1.0
2018-07-02T17:30:49.652Z,1.1
2018-07-02T17:32:49.866Z,1.1
2018-07-02T17:34:50.050Z,1.1
2018-07-02T17:36:49.603Z,1.1
2018-07-02T17:38:49.808Z,1.2
2018-07-02T17:40:49.890Z,1.1
2018-07-02T17:42:50.013Z,1.3
2018-07-02T17:44:50.076Z,1.3
2018-07-02T17:46:50.359Z,1.1
2018-07-02T17:48:50.450Z,1.1
2018-07-02T17:50:49.542Z,1.9
2018-07-02T17:52:49.641Z,1.1
2018-07-02T17:54:49.765Z,1.1
2018-07-02T17:56:49.959Z,0.9
2018-07-02T17:58:50.200Z,1.2
2018-07-02T18:00:50.271Z,0.9
2018-07-02T18:02:50.434Z,1.0
2018-07-02T18:04:49.769Z,1.0
2018-07-02T18:06:50.075Z,0.9
2018-07-02T18:08:50.388Z,1.1
2018-07-02T18:10:50.525Z,1.4
2018-07-02T18:12:49.821Z,1.4
2018-07-02T18:14:50.433Z,1.1
2018-07-02T18:16:49.641Z,1.0
2018-07-02T18:18:49.797Z,2.4
2018-07-02T18:20:49.923Z,1.1
2018-07-02T18:22:50.012Z,1.1
2018-07-02T18:24:50.143Z,1.1
2018-07-02T18:26:50.469Z,0.9
2018-07-02T18:28:50.388Z,0.9
2018-07-02T18:30:49.702Z,0.9
2018-07-02T18:32:49.765Z,0.9
2018-07-02T18:34:50.061Z,0.9
2018-07-02T18:36:50.467Z,0.9
2018-07-02T18:38:49.561Z,1.0
2018-07-02T18:40:49.653Z,0.9
2018-07-02T18:42:49.862Z,0.9
2018-07-02T18:44:49.921Z,1.0
2018-07-02T18:46:49.990Z,1.0
2018-07-02T18:48:49.966Z,1.2
2018-07-02T18:50:50.056Z,1.2
2018-07-02T18:52:50.124Z,1.1
2018-07-02T18:54:50.210Z,1.0
2018-07-02T18:56:50.348Z,1.1
2018-07-02T18:58:50.415Z,1.1
2018-07-02T19:00:49.503Z,1.1
2018-07-02T19:02:49.722Z,1.0
2018-07-02T19:04:50.306Z,1.0
2018-07-02T19:06:49.637Z,1.0
2018-07-02T19:08:49.736Z,0.9
2018-07-02T19:10:49.795Z,0.9
2018-07-02T19:12:49.937Z,1.1
2018-07-02T19:14:50.182Z,1.0
2018-07-02T19:16:50.298Z,1.6
2018-07-02T19:18:50.373Z,1.0
2018-07-02T19:20:50.469Z,1.0
2018-07-02T19:22:49.662Z,1.1
2018-07-02T19:24:49.768Z,1.2
2018-07-02T19:26:49.911Z,1.1
2018-07-02T19:28:49.974Z,1.2
2018-07-02T19:30:50.078Z,1.2
2018-07-02T19:32:50.100Z,1.0
2018-07-02T19:34:49.569Z,1.3
2018-07-02T19:36:49.836Z,1.6
2018-07-02T19:38:49.885Z,1.7
2018-07-02T19:40:50.150Z,1.7
2018-07-02T19:42:49.650Z,1.5
2018-07-02T19:44:49.737Z,1.5
2018-07-02T19:46:49.993Z,1.7
2018-07-02T19:48:50.127Z,1.8
2018-07-02T19:50:50.243Z,1.8
2018-07-02T19:52:50.315Z,1.5
2018-07-02T19:54:50.457Z,1.5
2018-07-02T19:56:49.870Z,1.5
2018-07-02T19:58:50.488Z,1.4
2018-07-02T20:00:49.527Z,1.2
2018-07-02T20:02:49.772Z,1.4
2018-07-02T20:04:49.772Z,1.1
2018-07-02T20:06:50.258Z,1.1
2018-07-02T20:08:50.281Z,1.1
2018-07-02T20:10:50.398Z,1.3
2018-07-02T20:12:50.505Z,1.1
2018-07-02T20:14:49.591Z,1.1
2018-07-02T20:16:49.793Z,1.2
2018-07-02T20:18:49.969Z,1.2
2018-07-02T20:20:50.305Z,1.2
2018-07-02T20:22:50.352Z,1.0
2018-07-02T20:24:50.465Z,1.2
2018-07-02T20:26:49.775Z,1.1
2018-07-02T20:28:49.854Z,1.1
2018-07-02T20:30:49.977Z,1.2
2018-07-02T20:32:50.116Z,1.2
2018-07-02T20:34:50.507Z,1.0
2018-07-02T20:36:50.163Z,1.2
2018-07-02T20:38:50.200Z,1.2
2018-07-02T20:40:50.418Z,1.2
2018-07-02T20:42:50.477Z,1.1
2018-07-02T20:44:49.661Z,1.3
2018-07-02T20:46:50.417Z,1.1
2018-07-02T20:48:50.464Z,1.1
2018-07-02T20:50:49.565Z,1.2
2018-07-02T20:52:49.705Z,1.2
2018-07-02T20:54:49.778Z,1.2
2018-07-02T20:56:50.055Z,1.2
2018-07-02T20:58:50.143Z,1.2
2018-07-02T21:00:50.278Z,1.1
2018-07-02T21:02:50.380Z,1.2
2018-07-02T21:04:49.738Z,1.3
2018-07-02T21:06:50.007Z,1.3
2018-07-02T21:08:50.258Z,1.4
2018-07-02T21:10:50.452Z,1.2
2018-07-02T21:12:49.612Z,1.2
2018-07-02T21:14:49.744Z,1.3
2018-07-02T21:16:49.972Z,1.3
2018-07-02T21:18:50.253Z,1.3
2018-07-02T21:20:50.371Z,1.3
2018-07-02T21:22:49.551Z,1.3
2018-07-02T21:24:49.662Z,1.3
2018-07-02T21:26:49.939Z,1.1
2018-07-02T21:28:50.155Z,1.3
2018-07-02T21:30:50.348Z,1.1
2018-07-02T21:32:50.459Z,1.1
2018-07-02T21:34:50.048Z,1.1
2018-07-02T21:36:50.269Z,1.1
2018-07-02T21:38:50.502Z,1.2
2018-07-02T21:40:49.807Z,1.1
2018-07-02T21:42:50.007Z,1.0
2018-07-02T21:44:50.270Z,1.0
2018-07-02T21:46:50.448Z,1.0
2018-07-02T21:48:49.715Z,1.2
2018-07-02T21:50:49.821Z,1.0
2018-07-02T21:52:49.914Z,1.0
2018-07-02T21:54:49.967Z,1.3
2018-07-02T21:56:50.474Z,1.1
2018-07-02T21:58:49.542Z,1.0
2018-07-02T22:00:49.603Z,1.1
2018-07-02T22:02:49.711Z,1.1
2018-07-02T22:04:49.947Z,1.1
2018-07-02T22:06:50.176Z,1.1
2018-07-02T22:08:50.270Z,1.1
2018-07-02T22:10:50.366Z,1.2
2018-07-02T22:12:49.764Z,1.2
2018-07-02T22:14:49.839Z,1.1
2018-07-02T22:16:50.058Z,1.1
2018-07-02T22:18:50.214Z,1.1
2018-07-02T22:20:50.320Z,1.2
2018-07-02T22:22:50.429Z,1.2
2018-07-02T22:24:50.502Z,1.6
2018-07-02T22:26:49.888Z,1.4
2018-07-02T22:28:50.007Z,1.5
2018-07-02T22:30:50.113Z,1.7
2018-07-02T22:32:50.198Z,1.7
2018-07-02T22:34:50.461Z,1.5
2018-07-02T22:36:49.698Z,1.2
2018-07-02T22:38:49.833Z,1.3
2018-07-02T22:40:49.939Z,1.3
2018-07-02T22:42:50.171Z,1.3
2018-07-02T22:44:50.220Z,1.3
2018-07-02T22:46:49.556Z,1.1
2018-07-02T22:48:49.785Z,1.1
2018-07-02T22:50:49.853Z,1.1
2018-07-02T22:52:49.943Z,1.2
2018-07-02T22:54:49.995Z,1.1
2018-07-02T22:56:50.231Z,1.1
2018-07-02T22:58:50.324Z,1.2
2018-07-02T23:00:50.421Z,1.1
2018-07-02T23:02:49.650Z,1.1
2018-07-02T23:04:49.910Z,1.1
2018-07-02T23:06:50.135Z,1.0
2018-07-02T23:08:50.335Z,1.2
2018-07-02T23:10:50.388Z,1.3
2018-07-02T23:12:50.462Z,1.3
2018-07-02T23:14:49.561Z,1.2
2018-07-02T23:16:49.781Z,1.1
2018-07-02T23:18:49.890Z,1.1
2018-07-02T23:20:50.081Z,1.2
2018-07-02T23:22:50.192Z,1.2
2018-07-02T23:24:50.382Z,1.1
2018-07-02T23:26:49.612Z,1.3
2018-07-02T23:28:49.736Z,1.2
2018-07-02T23:30:49.807Z,1.2
2018-07-02T23:32:49.938Z,1.1
2018-07-02T23:34:50.310Z,1.3
2018-07-02T23:36:49.670Z,1.2
2018-07-02T23:38:49.884Z,1.2
2018-07-02T23:40:50.022Z,1.2
2018-07-02T23:42:50.218Z,1.3
2018-07-02T23:44:50.278Z,1.3
2018-07-02T23:46:50.446Z,1.3
2018-07-02T23:48:50.510Z,1.2
2018-07-02T23:50:49.606Z,1.2
2018-07-02T23:52:49.796Z,1.2
2018-07-02T23:54:49.846Z,1.3
2018-07-02T23:56:50.032Z,1.5
2018-07-02T23:58:50.118Z,1.5
